createdAt,value
2022-11-16T00:02:10.677Z,87.40
2022-11-16T00:05:08.218Z,87.41
2022-11-16T00:08:05.781Z,87.49
2022-11-16T00:11:05.497Z,87.50
2022-11-16T00:14:03.233Z,87.53
2022-11-16T00:17:01.707Z,87.50
2022-11-16T00:19:59.244Z,87.55
2022-11-16T00:22:56.748Z,87.60
2022-11-16T00:25:54.283Z,87.63
2022-11-16T00:28:51.849Z,87.66
2022-11-16T00:31:49.433Z,87.72
2022-11-16T00:34:47.129Z,87.78
2022-11-16T00:37:44.645Z,87.82
2022-11-16T00:40:42.163Z,87.90
2022-11-16T00:43:39.697Z,87.92
2022-11-16T00:46:37.285Z,87.92
2022-11-16T00:49:34.840Z,87.92
2022-11-16T00:52:32.385Z,88.00
2022-11-16T00:55:29.934Z,87.98
2022-11-16T00:58:29.066Z,87.98
2022-11-16T01:01:27.114Z,87.99
2022-11-16T01:04:24.655Z,88.00
2022-11-16T01:07:22.163Z,88.00
2022-11-16T01:10:19.663Z,88.01
2022-11-16T01:13:17.147Z,88.03
2022-11-16T01:16:14.627Z,88.03
2022-11-16T01:19:12.067Z,88.02
2022-11-16T01:22:09.521Z,88.04
2022-11-16T01:25:07.017Z,88.09
2022-11-16T01:28:04.490Z,88.10
2022-11-16T01:31:01.969Z,88.07
2022-11-16T01:33:59.701Z,88.07
2022-11-16T01:36:57.188Z,88.02
2022-11-16T01:39:54.646Z,88.01
2022-11-16T01:42:52.151Z,88.09
2022-11-16T01:45:49.714Z,88.00
2022-11-16T01:48:47.287Z,88.00
2022-11-16T01:51:44.777Z,88.00
2022-11-16T01:54:42.229Z,88.01
2022-11-16T01:57:39.986Z,88.01
2022-11-16T02:00:37.431Z,88.02
2022-11-16T02:03:34.894Z,88.00
2022-11-16T02:06:32.726Z,88.00
2022-11-16T02:09:47.865Z,88.01
2022-11-16T02:12:45.325Z,88.01
2022-11-16T02:15:42.762Z,88.00
2022-11-16T02:18:40.246Z,88.00
2022-11-16T02:21:37.713Z,88.01
2022-11-16T02:24:35.168Z,88.07
2022-11-16T02:27:32.612Z,88.10
2022-11-16T02:30:30.041Z,88.09
2022-11-16T02:33:27.484Z,88.10
2022-11-16T02:36:24.902Z,88.09
2022-11-16T02:39:22.351Z,88.08
2022-11-16T02:42:19.804Z,88.04
2022-11-16T02:45:17.231Z,88.01
2022-11-16T02:48:14.685Z,88.07
2022-11-16T02:51:12.110Z,88.01
2022-11-16T02:54:11.778Z,88.03
2022-11-16T02:57:09.229Z,88.07
2022-11-16T03:00:06.682Z,88.07
2022-11-16T03:03:04.150Z,88.11
2022-11-16T03:06:01.597Z,88.13
2022-11-16T03:08:59.036Z,88.16
2022-11-16T03:12:04.700Z,88.18
2022-11-16T03:15:02.176Z,88.22
2022-11-16T03:17:59.630Z,88.25
2022-11-16T03:20:57.093Z,88.20
2022-11-16T03:23:54.560Z,88.21
2022-11-16T03:26:52.005Z,88.28
2022-11-16T03:29:49.471Z,88.32
2022-11-16T03:32:46.921Z,88.38
2022-11-16T03:35:44.381Z,88.38
2022-11-16T03:38:41.836Z,88.40
2022-11-16T03:41:39.289Z,88.48
2022-11-16T03:44:36.757Z,88.52
2022-11-16T03:47:34.197Z,88.60
2022-11-16T03:50:31.658Z,88.66
2022-11-16T03:53:29.149Z,88.70
2022-11-16T03:56:26.601Z,88.70
2022-11-16T03:59:24.051Z,88.73
2022-11-16T04:02:21.538Z,88.77
2022-11-16T04:05:36.815Z,88.80
2022-11-16T04:08:52.072Z,88.86
2022-11-16T04:12:07.538Z,88.82
2022-11-16T04:15:22.853Z,88.90
2022-11-16T04:18:38.413Z,88.90
2022-11-16T04:21:53.745Z,88.91
2022-11-16T04:24:51.197Z,89.00
2022-11-16T04:28:06.447Z,89.02
2022-11-16T04:31:21.675Z,89.08
2022-11-16T04:34:36.877Z,89.15
2022-11-16T04:37:49.926Z,89.20
2022-11-16T04:40:48.085Z,89.26
2022-11-16T04:43:45.535Z,89.29
2022-11-16T04:47:00.566Z,89.29
2022-11-16T04:49:58.021Z,89.30
2022-11-16T04:52:55.500Z,89.32
2022-11-16T04:55:56.696Z,89.36
2022-11-16T04:58:59.350Z,89.43
2022-11-16T05:02:09.209Z,89.50
2022-11-16T05:05:06.696Z,89.49
2022-11-16T05:08:04.122Z,89.48
2022-11-16T05:11:01.554Z,89.49
2022-11-16T05:13:59.008Z,89.47
2022-11-16T05:16:56.478Z,89.50
2022-11-16T05:20:11.698Z,89.48
2022-11-16T05:23:29.800Z,89.46
2022-11-16T05:26:27.288Z,89.51
2022-11-16T05:29:24.719Z,89.50
2022-11-16T05:32:22.210Z,89.54
2022-11-16T05:35:19.665Z,89.54
2022-11-16T05:38:17.121Z,89.50
2022-11-16T05:41:14.601Z,89.50
2022-11-16T05:44:12.044Z,89.50
2022-11-16T05:47:09.507Z,89.50
2022-11-16T05:50:06.956Z,89.51
2022-11-16T05:53:04.505Z,89.48
2022-11-16T05:56:02.038Z,89.43
2022-11-16T05:58:59.486Z,89.45
2022-11-16T06:01:57.956Z,89.43
2022-11-16T06:04:55.423Z,89.43
2022-11-16T06:07:52.889Z,89.42
2022-11-16T06:10:50.366Z,89.39
2022-11-16T06:13:47.814Z,89.37
2022-11-16T06:16:45.264Z,89.29
2022-11-16T06:19:42.722Z,89.30
2022-11-16T06:22:40.171Z,89.30
2022-11-16T06:25:37.632Z,89.20
2022-11-16T06:28:35.364Z,89.20
2022-11-16T06:31:33.156Z,89.14
2022-11-16T06:34:30.612Z,89.06
2022-11-16T06:37:28.072Z,89.03
2022-11-16T06:40:25.523Z,89.03
2022-11-16T06:43:22.977Z,89.09
2022-11-16T06:46:20.422Z,89.10
2022-11-16T06:49:17.867Z,89.02
2022-11-16T06:52:15.414Z,89.01
2022-11-16T06:55:12.872Z,89.00
2022-11-16T06:58:10.343Z,88.99
2022-11-16T07:01:07.868Z,88.91
2022-11-16T07:04:05.325Z,88.90
2022-11-16T07:07:02.839Z,88.89
2022-11-16T07:10:00.386Z,88.88
2022-11-16T07:12:57.862Z,88.80
2022-11-16T07:15:55.302Z,88.73
2022-11-16T07:18:52.836Z,88.72
2022-11-16T07:21:50.286Z,88.77
2022-11-16T07:24:47.754Z,88.76
2022-11-16T07:27:45.227Z,88.70
2022-11-16T07:30:42.659Z,88.70
2022-11-16T07:33:40.083Z,88.66
2022-11-16T07:36:37.534Z,88.59
2022-11-16T07:39:34.970Z,88.50
2022-11-16T07:42:32.403Z,88.46
2022-11-16T07:45:29.890Z,88.33
2022-11-16T07:48:27.340Z,88.29
2022-11-16T07:51:24.797Z,88.21
2022-11-16T07:54:22.260Z,88.12
2022-11-16T07:57:19.692Z,88.07
2022-11-16T08:00:17.150Z,88.03
2022-11-16T08:03:14.600Z,87.99
2022-11-16T08:06:12.073Z,87.92
2022-11-16T08:09:09.532Z,87.89
2022-11-16T08:12:07.072Z,87.85
2022-11-16T08:15:04.539Z,87.90
2022-11-16T08:18:02.010Z,87.91
2022-11-16T08:20:59.514Z,87.93
2022-11-16T08:23:58.741Z,87.89
2022-11-16T08:26:58.893Z,87.82
2022-11-16T08:29:56.786Z,87.80
2022-11-16T08:32:54.223Z,87.80
2022-11-16T08:35:51.668Z,87.80
2022-11-16T08:38:49.107Z,87.80
2022-11-16T08:41:46.587Z,87.80
2022-11-16T08:44:44.024Z,87.77
2022-11-16T08:47:41.493Z,87.78
2022-11-16T08:51:09.922Z,87.72
2022-11-16T08:53:56.378Z,87.70
2022-11-16T08:56:53.846Z,87.70
2022-11-16T08:59:51.290Z,87.57
2022-11-16T09:02:48.745Z,87.51
2022-11-16T09:05:47.057Z,87.50
2022-11-16T09:08:44.503Z,87.45
2022-11-16T09:11:41.988Z,87.33
2022-11-16T09:14:39.655Z,87.28
2022-11-16T09:17:37.137Z,87.28
2022-11-16T09:20:34.610Z,87.23
2022-11-16T09:23:32.056Z,87.18
2022-11-16T09:26:30.372Z,87.04
2022-11-16T09:29:28.831Z,86.90
2022-11-16T09:32:26.299Z,86.90
2022-11-16T09:35:24.188Z,86.83
2022-11-16T09:38:30.552Z,86.79
2022-11-16T09:41:37.928Z,86.70
2022-11-16T09:44:35.792Z,86.72
2022-11-16T09:47:33.244Z,86.70
2022-11-16T09:50:30.683Z,86.71
2022-11-16T09:53:28.144Z,86.64
2022-11-16T09:56:25.982Z,86.58
2022-11-16T09:59:23.710Z,86.50
2022-11-16T10:02:21.457Z,86.51
2022-11-16T10:05:18.911Z,86.51
2022-11-16T10:08:16.394Z,86.50
2022-11-16T10:11:13.855Z,86.47
2022-11-16T10:14:11.295Z,86.50
2022-11-16T10:17:08.746Z,86.50
2022-11-16T10:20:06.419Z,86.51
2022-11-16T10:23:04.282Z,86.50
2022-11-16T10:26:01.879Z,86.50
2022-11-16T10:28:59.361Z,86.50
2022-11-16T10:31:56.814Z,86.49
2022-11-16T10:34:54.301Z,86.47
2022-11-16T10:37:51.792Z,86.50
2022-11-16T10:40:49.261Z,86.49
2022-11-16T10:43:46.745Z,86.50
2022-11-16T10:46:44.975Z,86.43
2022-11-16T10:49:42.670Z,86.42
2022-11-16T10:52:40.136Z,86.33
2022-11-16T10:55:37.597Z,86.30
2022-11-16T10:58:35.085Z,86.20
2022-11-16T11:01:32.512Z,86.18
2022-11-16T11:04:30.143Z,86.11
2022-11-16T11:07:27.722Z,86.02
2022-11-16T11:10:25.288Z,86.00
2022-11-16T11:13:22.725Z,85.91
2022-11-16T11:16:20.681Z,85.86
2022-11-16T11:19:18.193Z,85.77
2022-11-16T11:22:15.910Z,85.72
2022-11-16T11:25:13.494Z,85.68
2022-11-16T11:28:10.961Z,85.71
2022-11-16T11:31:08.434Z,85.70
2022-11-16T11:34:05.869Z,85.61
2022-11-16T11:37:03.495Z,85.59
2022-11-16T11:40:00.962Z,85.60
2022-11-16T11:42:58.710Z,85.53
2022-11-16T11:45:56.169Z,85.47
2022-11-16T11:48:53.681Z,85.45
2022-11-16T11:51:51.176Z,85.30
2022-11-16T11:54:48.768Z,85.13
2022-11-16T11:57:46.240Z,85.10
2022-11-16T12:00:43.697Z,85.02
2022-11-16T12:03:41.169Z,84.74
2022-11-16T12:06:43.631Z,84.48
2022-11-16T12:09:41.950Z,84.29
2022-11-16T12:12:39.439Z,84.18
2022-11-16T12:15:36.907Z,84.09
2022-11-16T12:18:34.353Z,84.07
2022-11-16T12:21:31.825Z,84.07
2022-11-16T12:24:29.265Z,84.04
2022-11-16T12:27:27.467Z,84.05
2022-11-16T12:30:24.935Z,84.09
2022-11-16T12:33:23.807Z,84.11
2022-11-16T12:36:21.268Z,84.14
2022-11-16T12:39:18.773Z,84.25
2022-11-16T12:42:16.276Z,84.30
2022-11-16T12:45:14.529Z,84.36
2022-11-16T12:48:11.992Z,84.32
2022-11-16T12:51:09.854Z,84.31
2022-11-16T12:54:07.317Z,84.36
2022-11-16T12:57:04.816Z,84.38
2022-11-16T13:00:02.267Z,84.31
2022-11-16T13:03:00.220Z,84.29
2022-11-16T13:05:57.682Z,84.19
2022-11-16T13:08:55.280Z,84.21
2022-11-16T13:11:52.732Z,84.13
2022-11-16T13:14:51.703Z,84.10
2022-11-16T13:17:49.178Z,84.08
2022-11-16T13:20:46.642Z,84.06
2022-11-16T13:23:44.175Z,84.13
2022-11-16T13:26:41.916Z,84.04
2022-11-16T13:29:39.362Z,83.96
2022-11-16T13:32:36.851Z,83.90
2022-11-16T13:35:34.313Z,83.84
2022-11-16T13:38:32.088Z,83.68
2022-11-16T13:41:30.136Z,83.59
2022-11-16T13:44:27.630Z,83.47
2022-11-16T13:47:25.073Z,83.29
2022-11-16T13:50:22.535Z,83.15
2022-11-16T13:54:10.885Z,83.10
2022-11-16T13:56:37.482Z,82.94
2022-11-16T13:59:34.947Z,82.91
2022-11-16T14:02:32.584Z,82.88
2022-11-16T14:05:30.036Z,82.88
2022-11-16T14:08:27.515Z,82.75
2022-11-16T14:11:24.965Z,82.57
2022-11-16T14:14:22.410Z,82.56
2022-11-16T14:17:19.851Z,82.54
2022-11-16T14:20:22.203Z,82.44
2022-11-16T14:23:19.846Z,82.31
2022-11-16T14:26:17.334Z,82.31
2022-11-16T14:29:15.509Z,82.25
2022-11-16T14:32:12.944Z,82.23
2022-11-16T14:35:10.495Z,82.22
2022-11-16T14:38:07.942Z,82.20
2022-11-16T14:41:05.399Z,82.18
2022-11-16T14:44:02.832Z,82.19
2022-11-16T14:47:00.287Z,82.13
2022-11-16T14:49:57.740Z,82.18
2022-11-16T14:52:55.173Z,82.13
2022-11-16T14:55:52.765Z,82.10
2022-11-16T14:58:50.220Z,82.18
2022-11-16T15:01:47.693Z,82.24
2022-11-16T15:04:45.184Z,82.20
2022-11-16T15:07:42.716Z,82.21
2022-11-16T15:10:40.196Z,82.24
2022-11-16T15:13:37.871Z,82.30
2022-11-16T15:16:35.331Z,82.33
2022-11-16T15:19:33.256Z,82.52
2022-11-16T15:22:30.754Z,82.52
2022-11-16T15:25:28.206Z,82.57
2022-11-16T15:28:26.576Z,82.68
2022-11-16T15:31:24.285Z,82.81
2022-11-16T15:34:24.888Z,82.86
2022-11-16T15:37:22.356Z,82.92
2022-11-16T15:40:19.805Z,83.02
2022-11-16T15:43:18.149Z,83.10
2022-11-16T15:46:15.626Z,83.18
2022-11-16T15:49:13.074Z,83.22
2022-11-16T15:52:10.816Z,83.28
2022-11-16T15:55:08.256Z,83.32
2022-11-16T15:58:07.364Z,83.39
2022-11-16T16:01:04.956Z,83.47
2022-11-16T16:04:02.447Z,83.53
2022-11-16T16:06:59.992Z,83.58
2022-11-16T16:09:59.636Z,83.58
2022-11-16T16:12:57.109Z,83.66
2022-11-16T16:15:56.975Z,83.71
2022-11-16T16:18:54.454Z,83.79
2022-11-16T16:21:53.775Z,83.80
2022-11-16T16:24:51.228Z,83.88
2022-11-16T16:27:48.941Z,83.90
2022-11-16T16:30:46.452Z,83.95
2022-11-16T16:33:44.511Z,83.95
2022-11-16T16:36:42.391Z,84.00
2022-11-16T16:39:40.256Z,84.02
2022-11-16T16:42:37.711Z,84.07
2022-11-16T16:45:35.547Z,84.03
2022-11-16T16:48:33.460Z,84.04
2022-11-16T16:51:30.900Z,84.00
2022-11-16T16:54:29.080Z,84.00
2022-11-16T16:57:27.007Z,84.01
2022-11-16T17:00:25.236Z,84.02
2022-11-16T17:03:24.264Z,84.09
2022-11-16T17:06:21.895Z,84.10
2022-11-16T17:09:19.444Z,84.15
2022-11-16T17:12:17.893Z,84.18
2022-11-16T17:15:19.378Z,84.19
2022-11-16T17:18:18.275Z,84.23
2022-11-16T17:21:16.860Z,84.29
2022-11-16T17:24:15.392Z,84.30
2022-11-16T17:27:14.302Z,84.36
2022-11-16T17:30:12.415Z,84.40
2022-11-16T17:33:10.536Z,84.46
2022-11-16T17:36:10.833Z,84.41
2022-11-16T17:39:08.605Z,84.44
2022-11-16T17:42:06.103Z,84.47
2022-11-16T17:45:05.678Z,84.51
2022-11-16T17:48:04.130Z,84.56
2022-11-16T17:51:02.711Z,84.61
2022-11-16T17:54:00.774Z,84.63
2022-11-16T17:56:59.201Z,84.61
2022-11-16T17:59:57.371Z,84.62
2022-11-16T18:02:55.513Z,84.69
2022-11-16T18:05:54.003Z,84.72
2022-11-16T18:08:52.390Z,84.77
2022-11-16T18:11:50.975Z,84.80
2022-11-16T18:15:13.373Z,84.80
2022-11-16T18:18:07.923Z,84.79
2022-11-16T18:21:06.388Z,84.77
2022-11-16T18:24:05.419Z,84.75
2022-11-16T18:27:04.075Z,84.68
2022-11-16T18:30:02.558Z,84.62
2022-11-16T18:33:00.873Z,84.63
2022-11-16T18:36:01.475Z,84.66
2022-11-16T18:38:59.932Z,84.59
2022-11-16T18:41:58.389Z,84.57
2022-11-16T18:44:57.427Z,84.55
2022-11-16T18:47:56.081Z,84.57
2022-11-16T18:50:54.813Z,84.54
2022-11-16T18:53:52.951Z,84.53
2022-11-16T18:56:53.294Z,84.60
2022-11-16T18:59:51.380Z,84.67
2022-11-16T19:02:49.891Z,84.70
2022-11-16T19:05:48.370Z,84.71
2022-11-16T19:08:50.506Z,84.75
2022-11-16T19:11:52.546Z,84.76
2022-11-16T19:14:52.510Z,84.70
2022-11-16T19:18:19.861Z,84.69
2022-11-16T19:21:12.279Z,84.71
2022-11-16T19:27:24.069Z,84.80
2022-11-16T19:30:23.415Z,84.80
2022-11-16T19:33:22.824Z,84.78
2022-11-16T19:36:21.050Z,84.79
2022-11-16T19:39:19.123Z,84.75
2022-11-16T19:42:17.654Z,84.76
2022-11-16T19:45:16.340Z,84.72
2022-11-16T19:48:14.925Z,84.70
2022-11-16T19:51:13.026Z,84.68
2022-11-16T19:54:16.089Z,84.69
2022-11-16T19:57:16.260Z,84.69
2022-11-16T20:00:15.442Z,84.70
2022-11-16T20:03:14.405Z,84.70
2022-11-16T20:06:12.923Z,84.71
2022-11-16T20:09:12.703Z,84.70
2022-11-16T20:12:10.708Z,84.72
2022-11-16T20:15:09.360Z,84.72
2022-11-16T20:18:07.735Z,84.72
2022-11-16T20:21:07.969Z,84.70
2022-11-16T20:24:07.406Z,84.70
2022-11-16T20:27:06.469Z,84.72
2022-11-16T20:30:09.298Z,84.70
2022-11-16T20:33:08.151Z,84.70
2022-11-16T20:36:06.222Z,84.70
2022-11-16T20:39:04.398Z,84.73
2022-11-16T20:42:02.987Z,84.80
2022-11-16T20:45:02.693Z,84.77
2022-11-16T20:48:02.914Z,84.78
2022-11-16T20:51:00.988Z,84.75
2022-11-16T20:54:00.275Z,84.76
2022-11-16T20:57:00.206Z,84.74
2022-11-16T20:59:57.823Z,84.78
2022-11-16T21:02:56.359Z,84.79
2022-11-16T21:05:54.844Z,84.80
2022-11-16T21:08:52.927Z,84.80
2022-11-16T21:12:08.096Z,84.83
2022-11-16T21:15:05.562Z,84.84
2022-11-16T21:18:03.041Z,84.87
2022-11-16T21:21:00.755Z,84.89
2022-11-16T21:23:58.281Z,84.90
2022-11-16T21:26:55.726Z,84.89
2022-11-16T21:29:53.182Z,84.91
2022-11-16T21:32:50.722Z,84.93
2022-11-16T21:35:48.205Z,84.90
2022-11-16T21:38:45.666Z,84.89
2022-11-16T21:41:46.176Z,84.90
2022-11-16T21:44:43.636Z,84.91
2022-11-16T21:47:41.107Z,84.91
2022-11-16T21:50:38.552Z,84.90
2022-11-16T21:53:37.646Z,84.90
2022-11-16T21:56:35.356Z,84.93
2022-11-16T21:59:32.853Z,84.98
2022-11-16T22:02:30.304Z,84.97
2022-11-16T22:05:45.692Z,84.96
2022-11-16T22:08:43.210Z,84.99
2022-11-16T22:11:40.655Z,85.00
2022-11-16T22:14:38.147Z,85.00
2022-11-16T22:17:35.600Z,85.00
2022-11-16T22:20:33.055Z,85.00
2022-11-16T22:23:30.512Z,84.94
2022-11-16T22:26:28.015Z,84.88
2022-11-16T22:29:25.490Z,84.86
2022-11-16T22:32:22.944Z,84.81
2022-11-16T22:35:20.395Z,84.81
2022-11-16T22:38:17.847Z,84.80
2022-11-16T22:41:15.306Z,84.80
2022-11-16T22:44:12.744Z,84.81
2022-11-16T22:47:10.195Z,84.80
2022-11-16T22:50:07.653Z,84.81
2022-11-16T22:53:05.110Z,84.88
2022-11-16T22:56:02.594Z,84.89
2022-11-16T22:59:00.824Z,84.90
2022-11-16T23:02:02.914Z,84.92
2022-11-16T23:05:00.379Z,84.90
2022-11-16T23:07:58.282Z,84.89
2022-11-16T23:11:09.608Z,84.90
2022-11-16T23:14:24.659Z,84.91
2022-11-16T23:17:22.129Z,84.99
2022-11-16T23:20:37.153Z,84.99
2022-11-16T23:23:52.998Z,85.00
2022-11-16T23:27:08.241Z,85.00
2022-11-16T23:30:10.950Z,84.99
2022-11-16T23:33:10.081Z,84.97
2022-11-16T23:36:07.885Z,84.97
2022-11-16T23:39:05.358Z,85.00
2022-11-16T23:42:20.929Z,85.00
2022-11-16T23:45:18.619Z,85.00
2022-11-16T23:48:16.070Z,85.00
2022-11-16T23:51:13.521Z,84.98
2022-11-16T23:54:10.983Z,84.95
2022-11-16T23:57:08.465Z,84.95
